Weather History for K4M9 - December, 2012

Change the Weather History Date:

Saturday, December 29, 2012

  Actual Average (KARG) Record (KARG)
Temperature  
Mean Temperature 30 °F -  
Max Temperature 33 °F 43 °F 57 °F (2002)
Min Temperature 26 °F 29 °F 21 °F (2000)
Degree Days  
Heating Degree Days 36    
Moisture  
Dew Point 25 °F    
Average Humidity 81    
Maximum Humidity 100    
Minimum Humidity 69    
Precipitation  
Precipitation 0.00 in - - ()
Sea Level Pressure  
Sea Level Pressure 30.21 in    
Wind  
Wind Speed 12 mph (WNW)    
Max Wind Speed 22 mph    
Max Gust Speed 30 mph    
Visibility 8 miles    
Events Rain    
Averages and records for this station are not official NWS values.
T = Trace of Precipitation, MM = Missing Value Source: NWS Daily Summary

Daily Weather History Graph

Daily Weather History Graph

Search for Another Location

Airport or City:

Trip Planner

Search our weather history database for the weather conditions in past years. The results will help you decide how hot, cold, wet, or windy it might be!

Date:

Astronomy

Dec. 29, 2012 Rise Set
Actual Time 7:13 AM CST 4:56 PM CST
Civil Twilight 6:45 AM CST 5:24 PM CST
Nautical Twilight 6:12 AM CST 5:57 PM CST
Astronomical Twilight 5:41 AM CST 6:28 PM CST
Moon 6:26 PM CST (12/29) 7:49 AM CST (12/29)
Length of Visible Light 10h 39m
Length of Day
9h 42m
Full, 98% of the Moon is Illuminated
Dec 29
Full
Jan 4
Last Quarter
Jan 11
New
Jan 18
First Quarter
Jan 26
Full

Hourly Weather History & Observations

Time (CST) Temp. Windchill Dew Point Humidity Pressure Visibility Wind Dir Wind Speed Gust Speed Precip Events Conditions
12:15 AM 32.0 °F 23.6 °F 32.0 °F 100% 29.96 in 8.0 mi WNW 10.4 mph - N/A   Overcast
12:55 AM 33.8 °F 25.3 °F 32.0 °F 93% 29.97 in 7.0 mi WNW 11.5 mph - N/A   Overcast
1:15 AM 33.8 °F 25.3 °F 32.0 °F 93% 29.97 in 8.0 mi WNW 11.5 mph - N/A   Overcast
1:35 AM 32.0 °F 24.2 °F 32.0 °F 100% 29.98 in 7.0 mi WNW 9.2 mph - N/A   Overcast
1:55 AM 32.0 °F 24.8 °F 32.0 °F 100% 29.99 in 6.0 mi WNW 8.1 mph - N/A   Overcast
2:15 AM 33.8 °F 24.8 °F 32.0 °F 93% 30.00 in 7.0 mi WNW 12.7 mph - N/A   Overcast
2:35 AM 33.8 °F 23.2 °F 30.2 °F 87% 30.01 in 8.0 mi WNW 17.3 mph - N/A   Overcast
2:55 AM 33.8 °F 24.3 °F 30.2 °F 87% 30.01 in 8.0 mi WNW 13.8 mph - N/A   Overcast
3:15 AM 32.0 °F 22.5 °F 28.4 °F 87% 30.01 in 8.0 mi WNW 12.7 mph - N/A   Overcast
3:35 AM 32.0 °F 22.1 °F 28.4 °F 87% 30.02 in 8.0 mi WNW 13.8 mph - N/A   Overcast
3:55 AM 32.0 °F 22.5 °F 28.4 °F 87% 30.03 in 9.0 mi WNW 12.7 mph - N/A   Overcast
4:15 AM 32.0 °F 23.6 °F 28.4 °F 87% 30.04 in 8.0 mi WNW 10.4 mph - N/A   Overcast
4:35 AM 32.0 °F 23.6 °F 28.4 °F 87% 30.04 in 8.0 mi West 10.4 mph - N/A   Overcast
4:55 AM 32.0 °F 22.1 °F 28.4 °F 87% 30.05 in 8.0 mi West 13.8 mph 17.3 mph N/A   Overcast
5:15 AM 32.0 °F 22.5 °F 28.4 °F 87% 30.06 in 8.0 mi WNW 12.7 mph 18.4 mph N/A   Overcast
5:35 AM 32.0 °F 23.0 °F 28.4 °F 87% 30.06 in 7.0 mi WNW 11.5 mph 17.3 mph N/A   Overcast
5:55 AM 32.0 °F 21.6 °F 26.6 °F 80% 30.08 in 7.0 mi WNW 15.0 mph - N/A   Overcast
6:15 AM 32.0 °F 20.8 °F 24.8 °F 75% 30.09 in 9.0 mi WNW 17.3 mph 23.0 mph N/A   Overcast
6:35 AM 32.0 °F 20.5 °F 24.8 °F 75% 30.10 in 10.0 mi WNW 18.4 mph 26.5 mph N/A   Overcast
6:55 AM 32.0 °F 21.6 °F 24.8 °F 75% 30.11 in 10.0 mi WNW 15.0 mph 21.9 mph N/A   Overcast
7:15 AM 32.0 °F 21.2 °F 24.8 °F 75% 30.12 in 9.0 mi WNW 16.1 mph 19.6 mph N/A   Overcast
7:35 AM 32.0 °F 22.1 °F 24.8 °F 75% 30.13 in 8.0 mi WNW 13.8 mph - N/A   Overcast
7:55 AM 32.0 °F 22.1 °F 24.8 °F 75% 30.14 in 8.0 mi WNW 13.8 mph - N/A   Overcast
8:15 AM 32.0 °F 21.2 °F 24.8 °F 75% 30.15 in 7.0 mi WNW 16.1 mph - N/A   Mostly Cloudy
8:35 AM 32.0 °F 20.5 °F 24.8 °F 75% 30.16 in 7.0 mi WNW 18.4 mph - N/A   Scattered Clouds
8:55 AM 32.0 °F 19.8 °F 23.0 °F 69% 30.17 in 7.0 mi NW 20.7 mph 29.9 mph N/A Rain Light Rain
9:15 AM 30.2 °F 17.1 °F 23.0 °F 75% 30.18 in 7.0 mi WNW 21.9 mph 26.5 mph N/A Rain Light Freezing Rain
9:35 AM 30.2 °F 17.8 °F 23.0 °F 75% 30.20 in 6.0 mi WNW 19.6 mph 25.3 mph N/A   Haze
9:55 AM 28.4 °F 14.7 °F 23.0 °F 80% 30.21 in 6.0 mi NW 21.9 mph 27.6 mph N/A   Haze
10:15 AM 28.4 °F 17.5 °F 23.0 °F 80% 30.22 in 6.0 mi WNW 13.8 mph 21.9 mph N/A   Haze
10:35 AM 28.4 °F 16.2 °F 23.0 °F 80% 30.22 in 6.0 mi WNW 17.3 mph 23.0 mph N/A   Haze
10:55 AM 30.2 °F 19.3 °F 23.0 °F 75% 30.23 in 6.0 mi NW 15.0 mph - N/A   Haze
11:15 AM 30.2 °F 17.4 °F 23.0 °F 75% 30.23 in 7.0 mi NW 20.7 mph 26.5 mph N/A   Scattered Clouds
11:35 AM 32.0 °F 20.5 °F 24.8 °F 75% 30.23 in 5.0 mi NW 18.4 mph 26.5 mph N/A   Haze
11:55 AM 30.2 °F 19.3 °F 23.0 °F 75% 30.23 in 6.0 mi NW 15.0 mph 26.5 mph N/A   Haze
12:15 PM 30.2 °F 17.8 °F 23.0 °F 75% 30.23 in 7.0 mi NW 19.6 mph 25.3 mph N/A   Overcast
12:55 PM 32.0 °F 20.1 °F 23.0 °F 69% 30.23 in 7.0 mi NW 19.6 mph 26.5 mph N/A   Overcast
1:15 PM 32.0 °F 20.8 °F 23.0 °F 69% 30.24 in 8.0 mi WNW 17.3 mph 23.0 mph N/A   Mostly Cloudy
1:35 PM 32.0 °F 21.2 °F 23.0 °F 69% 30.23 in 8.0 mi NW 16.1 mph 21.9 mph N/A   Mostly Cloudy
1:55 PM 32.0 °F 20.8 °F 23.0 °F 69% 30.24 in 8.0 mi WNW 17.3 mph 23.0 mph N/A   Overcast
2:15 PM 32.0 °F 22.1 °F 23.0 °F 69% 30.25 in 8.0 mi WNW 13.8 mph 18.4 mph N/A   Mostly Cloudy
2:35 PM 32.0 °F 22.1 °F 23.0 °F 69% 30.26 in 9.0 mi NW 13.8 mph 19.6 mph N/A   Partly Cloudy
2:55 PM 32.0 °F 22.1 °F 23.0 °F 69% 30.27 in 9.0 mi NW 13.8 mph - N/A   Partly Cloudy
3:15 PM 32.0 °F 23.6 °F 23.0 °F 69% 30.28 in 8.0 mi NW 10.4 mph 16.1 mph N/A   Scattered Clouds
3:55 PM 32.0 °F 22.5 °F 23.0 °F 69% 30.30 in 9.0 mi WNW 12.7 mph - N/A   Partly Cloudy
4:15 PM 32.0 °F 24.8 °F 23.0 °F 69% 30.30 in 9.0 mi NW 8.1 mph - N/A   Clear
4:35 PM 32.0 °F 24.8 °F 23.0 °F 69% 30.31 in 9.0 mi WNW 8.1 mph - N/A   Clear
4:55 PM 32.0 °F 26.4 °F 23.0 °F 69% 30.32 in 8.0 mi West 5.8 mph - N/A   Clear
5:15 PM 30.2 °F 25.4 °F 23.0 °F 75% 30.33 in 8.0 mi WNW 4.6 mph - N/A   Clear
5:35 PM 28.4 °F 23.3 °F 24.8 °F 86% 30.34 in 9.0 mi West 4.6 mph - N/A   Clear
5:55 PM 28.4 °F 23.3 °F 23.0 °F 80% 30.34 in 10.0 mi West 4.6 mph - N/A   Clear
6:35 PM 28.4 °F 22.2 °F 23.0 °F 80% 30.37 in 9.0 mi WSW 5.8 mph - N/A   Clear
6:55 PM 28.4 °F 24.6 °F 23.0 °F 80% 30.37 in 9.0 mi West 3.5 mph - N/A   Clear
7:15 PM 28.4 °F 23.3 °F 23.0 °F 80% 30.38 in 8.0 mi WNW 4.6 mph - N/A   Clear
7:35 PM 28.4 °F - 23.0 °F 80% 30.38 in 8.0 mi Calm Calm - N/A   Clear
7:55 PM 26.6 °F - 24.8 °F 93% 30.38 in 7.0 mi Calm Calm - N/A   Clear
8:35 PM 28.4 °F 23.3 °F 23.0 °F 80% 30.39 in 8.0 mi WSW 4.6 mph - N/A   Clear
8:55 PM 28.4 °F 23.3 °F 24.8 °F 86% 30.39 in 8.0 mi WSW 4.6 mph - N/A   Clear
9:15 PM 28.4 °F 23.3 °F 24.8 °F 86% 30.40 in 8.0 mi SW 4.6 mph - N/A   Clear
9:35 PM 26.6 °F 22.6 °F 24.8 °F 93% 30.40 in 7.0 mi SW 3.5 mph - N/A   Clear
9:55 PM 26.6 °F 22.6 °F 24.8 °F 93% 30.40 in 7.0 mi SW 3.5 mph - N/A   Clear
10:15 PM 26.6 °F 21.2 °F 24.8 °F 93% 30.40 in 7.0 mi SSW 4.6 mph - N/A   Clear
10:35 PM 26.6 °F 21.2 °F 23.0 °F 86% 30.40 in 7.0 mi South 4.6 mph - N/A   Clear
10:55 PM 26.6 °F 20.0 °F 23.0 °F 86% 30.41 in 8.0 mi South 5.8 mph - N/A   Clear
11:15 PM 26.6 °F 20.0 °F 23.0 °F 86% 30.41 in 8.0 mi SSW 5.8 mph - N/A   Clear
11:35 PM 26.6 °F 20.0 °F 23.0 °F 86% 30.41 in 8.0 mi SSW 5.8 mph - N/A   Clear
11:55 PM 26.6 °F 20.0 °F 23.0 °F 86% 30.41 in 8.0 mi SSW 5.8 mph - N/A   Clear